Time;durP1;ratioP1;P1;durP2;ratioP2;P2;SDS_P1;SDS_P2;PMS_P1;PMS_P2;Temp;Humidity;BMP_temperature;BMP_pressure;BME280_temperature;BME280_humidity;BME280_pressure;Samples;Min_cycle;Max_cycle;Signal;HPM_P1;HPM_P2
2021/12/22 00:01:27;;;;;;;;;;;21.40;30.00;;;;;;482225;246;1500;-47
2021/12/22 00:03:28;;;;;;;;;;;21.40;30.00;;;;;;482472;246;2566;-47
2021/12/22 00:05:30;;;;;;;;;;;21.40;30.00;;;;;;482267;246;1121;-46
2021/12/22 00:07:30;;;;;;;;;;;21.50;30.00;;;;;;482113;247;2253;-46
2021/12/22 00:09:32;;;;;;;;;;;21.50;29.90;;;;;;482295;246;1361;-46
2021/12/22 00:11:33;;;;;;;;;;;21.50;29.90;;;;;;482377;246;1221;-46
2021/12/22 00:13:34;;;;;;;;;;;21.50;29.90;;;;;;482734;246;1060;-46
2021/12/22 00:15:36;;;;;;;;;;;21.60;29.80;;;;;;482517;246;1330;-47
2021/12/22 00:17:37;;;;;;;;;;;21.70;29.80;;;;;;482524;246;1204;-46
2021/12/22 00:19:38;;;;;;;;;;;21.70;29.80;;;;;;482292;246;1081;-46
2021/12/22 00:21:40;;;;;;;;;;;21.70;29.70;;;;;;482175;246;1475;-46
2021/12/22 00:23:41;;;;;;;;;;;21.70;29.70;;;;;;482287;246;1015;-47
2021/12/22 00:25:42;;;;;;;;;;;21.80;29.60;;;;;;482224;246;2192;-47
2021/12/22 00:27:43;;;;;;;;;;;21.80;29.60;;;;;;482597;246;1185;-47
2021/12/22 00:29:49;;;;;;;;;;;21.80;29.60;;;;;;482679;246;1239;-46
2021/12/22 00:31:58;;;;;;;;;;;21.80;29.60;;;;;;481890;247;2022;-47
2021/12/22 00:33:49;;;;;;;;;;;21.90;29.60;;;;;;481659;247;2415;-46
2021/12/22 00:35:49;;;;;;;;;;;21.90;29.60;;;;;;482341;247;2596;-46
2021/12/22 00:37:50;;;;;;;;;;;21.90;29.50;;;;;;482378;246;1233;-47
2021/12/22 00:39:51;;;;;;;;;;;21.90;29.50;;;;;;482514;246;1080;-46
2021/12/22 00:41:53;;;;;;;;;;;22.00;29.50;;;;;;482414;246;1331;-46
2021/12/22 00:43:54;;;;;;;;;;;21.90;29.50;;;;;;482462;246;1018;-47
2021/12/22 00:45:56;;;;;;;;;;;21.90;29.50;;;;;;482363;246;2141;-46
2021/12/22 00:47:57;;;;;;;;;;;22.00;29.50;;;;;;482265;246;1330;-46
2021/12/22 00:49:58;;;;;;;;;;;21.90;29.40;;;;;;482680;246;1118;-47
2021/12/22 00:52:00;;;;;;;;;;;22.00;29.40;;;;;;482119;246;1384;-46
2021/12/22 00:54:01;;;;;;;;;;;22.00;29.40;;;;;;482237;246;979;-47
2021/12/22 00:56:03;;;;;;;;;;;22.00;29.40;;;;;;482363;246;1183;-47
2021/12/22 00:58:04;;;;;;;;;;;22.10;29.40;;;;;;482287;247;2240;-47
2021/12/22 01:00:05;;;;;;;;;;;22.10;29.40;;;;;;482392;246;1033;-46
2021/12/22 01:02:07;;;;;;;;;;;22.10;29.40;;;;;;482111;246;1277;-46
2021/12/22 01:04:08;;;;;;;;;;;22.10;29.40;;;;;;482697;246;1079;-46
2021/12/22 01:06:09;;;;;;;;;;;22.10;29.30;;;;;;482562;246;2200;-46
2021/12/22 01:08:11;;;;;;;;;;;22.10;29.40;;;;;;482701;246;1198;-47
2021/12/22 01:10:12;;;;;;;;;;;22.10;29.40;;;;;;482660;246;1050;-46
2021/12/22 01:12:13;;;;;;;;;;;22.10;29.40;;;;;;482590;246;1231;-47
2021/12/22 01:14:14;;;;;;;;;;;22.10;29.30;;;;;;482730;246;1056;-47
2021/12/22 01:16:16;;;;;;;;;;;22.10;29.30;;;;;;482424;246;1306;-47
2021/12/22 01:18:28;;;;;;;;;;;22.10;29.30;;;;;;482515;246;1175;-46
2021/12/22 01:20:23;;;;;;;;;;;22.10;29.30;;;;;;481772;247;2068;-47
2021/12/22 01:22:29;;;;;;;;;;;22.20;29.30;;;;;;481866;247;2149;-47
2021/12/22 01:24:31;;;;;;;;;;;22.20;29.30;;;;;;481888;247;2633;-47
2021/12/22 01:26:30;;;;;;;;;;;22.20;29.30;;;;;;481908;247;2172;-47
2021/12/22 01:28:32;;;;;;;;;;;22.20;29.30;;;;;;482171;246;1217;-46
2021/12/22 01:30:33;;;;;;;;;;;22.20;29.30;;;;;;482593;247;2501;-46
2021/12/22 01:32:34;;;;;;;;;;;22.20;29.30;;;;;;482108;246;1494;-47
2021/12/22 01:34:35;;;;;;;;;;;22.20;29.30;;;;;;482738;246;1022;-47
2021/12/22 01:36:36;;;;;;;;;;;22.20;29.20;;;;;;482347;246;1261;-46
2021/12/22 01:38:38;;;;;;;;;;;22.20;29.20;;;;;;482716;246;1250;-46
2021/12/22 01:40:39;;;;;;;;;;;22.30;29.20;;;;;;482368;246;1318;-47
2021/12/22 01:42:40;;;;;;;;;;;22.30;29.20;;;;;;482148;246;1587;-47
2021/12/22 01:44:49;;;;;;;;;;;22.30;29.20;;;;;;482653;246;1113;-47
2021/12/22 01:49:10;;;;;;;;;;;22.30;29.20;;;;;;482270;247;1058;-47
2021/12/22 01:51:11;;;;;;;;;;;22.30;29.20;;;;;;482476;246;1506;-46
2021/12/22 01:53:12;;;;;;;;;;;22.30;29.20;;;;;;482239;246;1318;-47
2021/12/22 01:55:17;;;;;;;;;;;22.30;29.20;;;;;;482316;246;1250;-46
2021/12/22 01:57:15;;;;;;;;;;;22.30;29.20;;;;;;481994;247;2318;-46
2021/12/22 01:59:16;;;;;;;;;;;22.30;29.20;;;;;;482282;246;1309;-46
2021/12/22 02:01:18;;;;;;;;;;;22.30;29.20;;;;;;482392;246;1241;-47
2021/12/22 02:03:19;;;;;;;;;;;22.30;29.20;;;;;;482409;246;1062;-47
2021/12/22 02:05:21;;;;;;;;;;;22.30;29.20;;;;;;482297;246;1178;-46
2021/12/22 02:07:22;;;;;;;;;;;22.30;29.20;;;;;;482277;246;2134;-46
2021/12/22 02:09:39;;;;;;;;;;;22.30;29.20;;;;;;482281;246;1031;-46
2021/12/22 02:11:28;;;;;;;;;;;22.40;29.20;;;;;;481418;247;2537;-47
2021/12/22 02:13:33;;;;;;;;;;;22.30;29.10;;;;;;482455;246;1245;-46
2021/12/22 02:15:34;;;;;;;;;;;22.40;29.20;;;;;;482172;247;2192;-47
2021/12/22 02:17:34;;;;;;;;;;;22.40;29.10;;;;;;482049;247;2523;-47
2021/12/22 02:19:34;;;;;;;;;;;22.40;29.10;;;;;;482164;247;2280;-47
2021/12/22 02:21:40;;;;;;;;;;;22.40;29.10;;;;;;482151;246;1349;-46
2021/12/22 02:23:36;;;;;;;;;;;22.40;29.10;;;;;;482374;247;2080;-46
2021/12/22 02:25:45;;;;;;;;;;;22.40;29.10;;;;;;482530;246;1522;-47
2021/12/22 02:27:45;;;;;;;;;;;22.40;29.10;;;;;;481744;247;2274;-47
2021/12/22 02:29:46;;;;;;;;;;;22.40;29.10;;;;;;481918;247;2713;-46
2021/12/22 02:31:45;;;;;;;;;;;22.40;29.10;;;;;;481957;247;1614;-47
2021/12/22 02:33:46;;;;;;;;;;;22.40;29.10;;;;;;482066;247;2680;-46
2021/12/22 02:35:53;;;;;;;;;;;22.40;29.10;;;;;;482085;247;2079;-46
2021/12/22 02:37:46;;;;;;;;;;;22.40;29.10;;;;;;481637;247;2134;-47
2021/12/22 02:39:47;;;;;;;;;;;22.40;29.10;;;;;;482557;246;1347;-47
2021/12/22 02:41:49;;;;;;;;;;;22.40;29.10;;;;;;482128;246;1197;-47
2021/12/22 02:43:52;;;;;;;;;;;22.40;29.10;;;;;;482529;246;1059;-46
2021/12/22 02:45:51;;;;;;;;;;;22.40;29.10;;;;;;482213;247;2264;-46
2021/12/22 02:47:52;;;;;;;;;;;22.40;29.10;;;;;;482195;246;2197;-47
2021/12/22 02:49:53;;;;;;;;;;;22.40;29.10;;;;;;482315;246;1242;-46
2021/12/22 02:51:55;;;;;;;;;;;22.50;29.10;;;;;;482324;246;1600;-47
2021/12/22 02:54:04;;;;;;;;;;;22.40;29.10;;;;;;482528;246;1546;-47
2021/12/22 02:56:12;;;;;;;;;;;22.50;29.10;;;;;;482398;247;2182;-47
2021/12/22 02:58:05;;;;;;;;;;;22.50;29.10;;;;;;481800;247;1801;-47
2021/12/22 03:00:27;;;;;;;;;;;22.50;29.10;;;;;;482196;247;2240;-47
2021/12/22 03:02:20;;;;;;;;;;;22.50;29.10;;;;;;481138;247;2453;-47
2021/12/22 03:04:19;;;;;;;;;;;22.50;29.00;;;;;;482426;247;2277;-47
2021/12/22 03:06:26;;;;;;;;;;;22.50;29.10;;;;;;482076;247;1910;-47
2021/12/22 03:08:20;;;;;;;;;;;22.50;29.10;;;;;;481937;247;2205;-46
2021/12/22 03:10:21;;;;;;;;;;;22.50;29.10;;;;;;482743;246;1499;-46
2021/12/22 03:12:23;;;;;;;;;;;22.50;29.00;;;;;;482238;246;1289;-46
2021/12/22 03:14:24;;;;;;;;;;;22.50;29.00;;;;;;482287;247;2428;-46
2021/12/22 03:16:25;;;;;;;;;;;22.50;29.00;;;;;;482184;246;1176;-47
2021/12/22 03:18:26;;;;;;;;;;;22.50;29.00;;;;;;482298;246;1183;-47
2021/12/22 03:20:28;;;;;;;;;;;22.50;29.00;;;;;;482502;246;1125;-46
2021/12/22 03:22:29;;;;;;;;;;;22.50;29.00;;;;;;482155;246;1477;-47
2021/12/22 03:24:30;;;;;;;;;;;22.50;29.00;;;;;;482740;246;1044;-47
2021/12/22 03:26:32;;;;;;;;;;;22.50;29.00;;;;;;482318;246;1355;-46
2021/12/22 03:28:33;;;;;;;;;;;22.50;29.00;;;;;;482436;246;2192;-47
2021/12/22 03:30:34;;;;;;;;;;;22.50;29.00;;;;;;482299;246;1255;-46
2021/12/22 03:32:36;;;;;;;;;;;22.50;29.00;;;;;;482499;246;1258;-46
2021/12/22 03:34:37;;;;;;;;;;;22.60;29.00;;;;;;482300;246;1217;-46
2021/12/22 03:36:40;;;;;;;;;;;22.60;29.00;;;;;;482225;246;1487;-47
2021/12/22 03:38:40;;;;;;;;;;;22.60;29.10;;;;;;482187;247;2276;-46
2021/12/22 03:40:41;;;;;;;;;;;22.50;29.00;;;;;;482667;246;1210;-46
2021/12/22 03:42:42;;;;;;;;;;;22.60;29.00;;;;;;482209;246;1238;-47
2021/12/22 03:44:43;;;;;;;;;;;22.60;29.00;;;;;;482301;246;1049;-46
2021/12/22 03:46:45;;;;;;;;;;;22.60;29.00;;;;;;482088;246;1241;-46
2021/12/22 03:48:46;;;;;;;;;;;22.60;29.00;;;;;;482311;246;2118;-46
2021/12/22 03:50:47;;;;;;;;;;;22.60;29.00;;;;;;482278;246;1241;-47
2021/12/22 03:52:49;;;;;;;;;;;22.60;29.00;;;;;;482163;246;1132;-47
2021/12/22 03:54:54;;;;;;;;;;;22.60;29.00;;;;;;482654;246;1206;-46
2021/12/22 03:56:52;;;;;;;;;;;22.50;29.00;;;;;;482242;247;2127;-47
2021/12/22 03:58:53;;;;;;;;;;;22.50;29.10;;;;;;482739;246;1128;-47
2021/12/22 04:00:56;;;;;;;;;;;22.40;29.10;;;;;;482384;246;1167;-46
2021/12/22 04:02:56;;;;;;;;;;;22.20;29.40;;;;;;482167;247;1665;-47
2021/12/22 04:04:57;;;;;;;;;;;22.00;29.60;;;;;;482703;246;1079;-46
2021/12/22 04:06:58;;;;;;;;;;;21.80;29.80;;;;;;482431;246;2129;-46
2021/12/22 04:08:59;;;;;;;;;;;21.70;30.00;;;;;;482251;246;1623;-46
2021/12/22 04:11:01;;;;;;;;;;;21.60;30.00;;;;;;482211;246;1167;-47
2021/12/22 04:13:02;;;;;;;;;;;21.50;30.10;;;;;;482337;246;1404;-47
2021/12/22 04:15:03;;;;;;;;;;;21.40;30.20;;;;;;482759;246;1137;-47
2021/12/22 04:17:05;;;;;;;;;;;21.40;30.30;;;;;;482155;246;1203;-47
2021/12/22 04:19:06;;;;;;;;;;;21.30;30.40;;;;;;482351;246;1173;-46
2021/12/22 04:21:07;;;;;;;;;;;21.30;30.40;;;;;;482300;246;1298;-46
2021/12/22 04:23:09;;;;;;;;;;;21.30;30.50;;;;;;482346;246;1207;-46
2021/12/22 04:25:10;;;;;;;;;;;21.20;30.60;;;;;;482264;246;1311;-46
2021/12/22 04:27:12;;;;;;;;;;;21.20;30.60;;;;;;482177;246;2197;-46
2021/12/22 04:29:13;;;;;;;;;;;21.20;30.70;;;;;;482325;246;1263;-46
2021/12/22 04:31:14;;;;;;;;;;;21.10;30.70;;;;;;482139;246;1884;-46
2021/12/22 04:33:15;;;;;;;;;;;21.10;30.70;;;;;;482261;246;1304;-46
2021/12/22 04:35:17;;;;;;;;;;;21.10;30.70;;;;;;482584;246;1200;-46
2021/12/22 04:37:18;;;;;;;;;;;21.00;30.80;;;;;;482154;246;1158;-46
2021/12/22 04:39:19;;;;;;;;;;;21.00;30.80;;;;;;482688;246;1039;-46
2021/12/22 04:41:20;;;;;;;;;;;21.00;30.90;;;;;;482293;246;1366;-47
2021/12/22 04:43:22;;;;;;;;;;;21.00;30.80;;;;;;482303;246;1064;-46
2021/12/22 04:45:23;;;;;;;;;;;20.90;30.90;;;;;;482682;246;1331;-46
2021/12/22 04:47:24;;;;;;;;;;;20.90;30.80;;;;;;482162;246;2221;-46
2021/12/22 04:49:26;;;;;;;;;;;20.90;30.90;;;;;;482354;246;1175;-46
2021/12/22 04:51:29;;;;;;;;;;;20.90;31.00;;;;;;482177;246;1400;-46
2021/12/22 04:53:37;;;;;;;;;;;20.80;31.00;;;;;;482326;247;2457;-46
2021/12/22 04:55:30;;;;;;;;;;;20.80;30.90;;;;;;481779;247;2357;-47
2021/12/22 04:57:31;;;;;;;;;;;20.80;31.00;;;;;;482155;246;1446;-46
2021/12/22 04:59:33;;;;;;;;;;;20.80;31.10;;;;;;482237;247;1095;-46
2021/12/22 05:01:34;;;;;;;;;;;20.80;31.00;;;;;;482420;246;1668;-46
2021/12/22 05:03:35;;;;;;;;;;;20.80;31.10;;;;;;482276;246;1127;-46
2021/12/22 05:05:37;;;;;;;;;;;20.80;31.00;;;;;;482611;246;977;-46
2021/12/22 05:07:38;;;;;;;;;;;20.80;31.10;;;;;;482276;246;2123;-46
2021/12/22 05:09:39;;;;;;;;;;;20.70;31.00;;;;;;482278;246;1048;-47
2021/12/22 05:11:41;;;;;;;;;;;20.80;31.00;;;;;;482350;246;1372;-46
2021/12/22 05:13:42;;;;;;;;;;;20.70;31.00;;;;;;482691;246;1036;-46
2021/12/22 05:15:43;;;;;;;;;;;20.70;31.00;;;;;;482307;246;1367;-46
2021/12/22 05:18:14;;;;;;;;;;;20.70;31.00;;;;;;482199;246;1238;-46
2021/12/22 05:20:03;;;;;;;;;;;20.70;31.10;;;;;;481538;247;1441;-46
2021/12/22 05:22:04;;;;;;;;;;;20.60;31.00;;;;;;482456;246;1335;-46
2021/12/22 05:24:05;;;;;;;;;;;20.70;31.10;;;;;;482455;246;1084;-47
2021/12/22 05:26:07;;;;;;;;;;;20.70;31.00;;;;;;482138;246;1230;-46
2021/12/22 05:28:08;;;;;;;;;;;20.60;31.00;;;;;;482425;246;2126;-46
2021/12/22 05:30:09;;;;;;;;;;;20.70;31.00;;;;;;482229;246;1041;-46
2021/12/22 05:32:11;;;;;;;;;;;20.60;31.00;;;;;;482268;246;1194;-46
2021/12/22 05:34:12;;;;;;;;;;;20.60;31.00;;;;;;482226;246;1184;-46
2021/12/22 05:36:13;;;;;;;;;;;20.60;31.10;;;;;;482167;246;1508;-46
2021/12/22 05:38:15;;;;;;;;;;;20.60;31.10;;;;;;482276;246;1174;-46
2021/12/22 05:40:16;;;;;;;;;;;20.60;31.10;;;;;;482199;246;1450;-46
2021/12/22 05:42:18;;;;;;;;;;;20.60;31.00;;;;;;482307;246;1182;-46
2021/12/22 05:44:18;;;;;;;;;;;20.60;31.10;;;;;;482334;246;1884;-46
2021/12/22 05:46:20;;;;;;;;;;;20.60;31.00;;;;;;482037;246;1477;-46
2021/12/22 05:48:22;;;;;;;;;;;20.60;31.10;;;;;;482252;246;2420;-46
2021/12/22 05:50:22;;;;;;;;;;;20.60;31.10;;;;;;482078;246;2019;-46
2021/12/22 05:52:24;;;;;;;;;;;20.60;31.10;;;;;;482075;246;1187;-46
2021/12/22 05:54:25;;;;;;;;;;;20.60;31.10;;;;;;482189;246;1049;-46
2021/12/22 05:56:29;;;;;;;;;;;20.60;31.10;;;;;;482063;246;1549;-46
2021/12/22 05:58:28;;;;;;;;;;;20.50;31.10;;;;;;482185;247;1958;-46
2021/12/22 06:00:29;;;;;;;;;;;20.60;31.10;;;;;;482113;246;1013;-46
2021/12/22 06:02:31;;;;;;;;;;;20.50;31.10;;;;;;482114;246;1260;-46
2021/12/22 06:04:32;;;;;;;;;;;20.50;31.10;;;;;;482407;246;1197;-46
2021/12/22 06:06:33;;;;;;;;;;;20.50;31.00;;;;;;482081;246;1359;-46
2021/12/22 06:08:35;;;;;;;;;;;20.50;31.00;;;;;;482166;246;2190;-47
2021/12/22 06:10:36;;;;;;;;;;;20.50;31.20;;;;;;482062;246;1080;-46
2021/12/22 06:12:37;;;;;;;;;;;20.40;31.10;;;;;;482008;246;1349;-46
2021/12/22 06:14:39;;;;;;;;;;;20.40;31.10;;;;;;482096;246;1032;-46
2021/12/22 06:16:40;;;;;;;;;;;20.40;31.10;;;;;;482179;246;1209;-46
2021/12/22 06:18:43;;;;;;;;;;;20.50;31.10;;;;;;482552;246;1155;-46
2021/12/22 06:20:43;;;;;;;;;;;20.40;31.10;;;;;;481957;246;2248;-46
2021/12/22 06:22:44;;;;;;;;;;;20.50;31.20;;;;;;481954;246;1158;-46
2021/12/22 06:24:45;;;;;;;;;;;20.50;31.00;;;;;;482289;246;1047;-46
2021/12/22 06:26:47;;;;;;;;;;;20.40;31.10;;;;;;482017;246;1303;-46
2021/12/22 06:28:48;;;;;;;;;;;20.40;31.00;;;;;;482518;246;2141;-46
2021/12/22 06:30:49;;;;;;;;;;;20.50;31.10;;;;;;481978;246;1420;-46
2021/12/22 06:32:51;;;;;;;;;;;20.40;31.00;;;;;;482030;246;1170;-46
2021/12/22 06:34:52;;;;;;;;;;;20.40;31.00;;;;;;482061;246;1177;-46
2021/12/22 06:36:53;;;;;;;;;;;20.40;31.00;;;;;;482331;246;1279;-46
2021/12/22 06:38:55;;;;;;;;;;;20.40;31.10;;;;;;482122;246;1114;-46
2021/12/22 06:40:56;;;;;;;;;;;20.40;31.00;;;;;;482127;246;1227;-47
2021/12/22 06:42:57;;;;;;;;;;;20.40;31.00;;;;;;481928;246;1222;-46
2021/12/22 06:44:59;;;;;;;;;;;20.40;31.10;;;;;;482057;246;1078;-46
2021/12/22 06:47:00;;;;;;;;;;;20.40;31.10;;;;;;481933;246;1202;-46
2021/12/22 06:49:01;;;;;;;;;;;20.40;31.10;;;;;;482021;246;2123;-46
2021/12/22 06:51:03;;;;;;;;;;;20.40;31.10;;;;;;481984;246;1187;-46
2021/12/22 06:53:04;;;;;;;;;;;20.40;31.10;;;;;;482105;246;1186;-46
2021/12/22 06:55:05;;;;;;;;;;;20.40;31.00;;;;;;482147;246;1119;-45
2021/12/22 06:57:06;;;;;;;;;;;20.40;31.10;;;;;;481964;246;1351;-46
2021/12/22 06:59:08;;;;;;;;;;;20.40;31.00;;;;;;481945;246;1177;-46
2021/12/22 07:01:12;;;;;;;;;;;20.30;31.00;;;;;;481971;246;1169;-46
2021/12/22 07:03:11;;;;;;;;;;;20.30;31.10;;;;;;481730;247;2138;-46
2021/12/22 07:05:12;;;;;;;;;;;20.30;31.10;;;;;;482036;246;1161;-46
2021/12/22 07:07:13;;;;;;;;;;;20.30;31.10;;;;;;482137;246;1249;-46
2021/12/22 07:09:14;;;;;;;;;;;20.40;31.10;;;;;;482239;246;2192;-46
2021/12/22 07:11:16;;;;;;;;;;;20.40;31.00;;;;;;482000;246;1146;-46
2021/12/22 07:13:17;;;;;;;;;;;20.30;31.00;;;;;;482477;246;1203;-46
2021/12/22 07:15:19;;;;;;;;;;;20.30;31.00;;;;;;482132;246;1270;-46
2021/12/22 07:17:20;;;;;;;;;;;20.30;31.00;;;;;;481988;246;1279;-46
2021/12/22 07:19:21;;;;;;;;;;;20.30;30.90;;;;;;482010;246;1304;-46
2021/12/22 07:21:23;;;;;;;;;;;20.30;30.90;;;;;;482116;246;1211;-46
2021/12/22 07:23:24;;;;;;;;;;;20.30;31.00;;;;;;482066;246;1166;-46
2021/12/22 07:25:25;;;;;;;;;;;20.30;30.90;;;;;;482092;246;1359;-46
2021/12/22 07:27:27;;;;;;;;;;;20.30;31.00;;;;;;481936;246;1500;-46
2021/12/22 07:29:28;;;;;;;;;;;20.30;30.80;;;;;;482067;246;2142;-46
2021/12/22 07:31:29;;;;;;;;;;;20.30;30.80;;;;;;482038;246;1176;-46
2021/12/22 07:33:31;;;;;;;;;;;20.30;30.80;;;;;;482020;246;1232;-46
2021/12/22 07:35:32;;;;;;;;;;;20.30;30.70;;;;;;481784;246;1465;-46
2021/12/22 07:37:33;;;;;;;;;;;20.30;30.60;;;;;;481817;246;1326;-46
2021/12/22 07:39:35;;;;;;;;;;;20.30;30.60;;;;;;482036;246;1064;-46
2021/12/22 07:41:36;;;;;;;;;;;20.30;30.60;;;;;;481920;246;1532;-46
2021/12/22 07:43:38;;;;;;;;;;;20.30;30.60;;;;;;481869;246;1085;-46
2021/12/22 07:45:39;;;;;;;;;;;20.30;30.60;;;;;;481937;246;1578;-46
2021/12/22 07:47:40;;;;;;;;;;;20.30;30.60;;;;;;481835;246;1550;-46
2021/12/22 07:49:42;;;;;;;;;;;20.30;30.50;;;;;;481937;246;2185;-45
2021/12/22 07:51:43;;;;;;;;;;;20.30;30.50;;;;;;481819;246;1149;-46
2021/12/22 07:53:44;;;;;;;;;;;20.30;30.50;;;;;;481914;246;1068;-46
2021/12/22 07:55:45;;;;;;;;;;;20.30;30.50;;;;;;482039;246;1423;-46
2021/12/22 07:57:47;;;;;;;;;;;20.20;30.40;;;;;;481938;246;1149;-46
2021/12/22 07:59:48;;;;;;;;;;;20.20;30.50;;;;;;482015;246;1053;-46
2021/12/22 08:01:49;;;;;;;;;;;20.20;30.40;;;;;;481904;246;1204;-46
2021/12/22 08:03:51;;;;;;;;;;;20.20;30.50;;;;;;481921;246;1177;-46
2021/12/22 08:05:52;;;;;;;;;;;20.30;30.40;;;;;;482115;246;1499;-46
2021/12/22 08:07:56;;;;;;;;;;;20.30;30.50;;;;;;481962;246;1649;-46
2021/12/22 08:09:55;;;;;;;;;;;20.20;30.40;;;;;;481987;246;2270;-46
2021/12/22 08:11:56;;;;;;;;;;;20.30;30.40;;;;;;481792;246;1493;-46
2021/12/22 08:13:58;;;;;;;;;;;20.30;30.40;;;;;;481810;246;1040;-46
2021/12/22 08:15:59;;;;;;;;;;;20.20;30.50;;;;;;481727;246;1297;-46
2021/12/22 08:18:00;;;;;;;;;;;20.20;30.50;;;;;;481853;246;1260;-46
2021/12/22 08:20:02;;;;;;;;;;;20.20;30.40;;;;;;482019;246;1268;-46
2021/12/22 08:22:03;;;;;;;;;;;20.20;30.50;;;;;;481852;246;1555;-46
2021/12/22 08:24:04;;;;;;;;;;;20.30;30.40;;;;;;481884;246;1026;-47
2021/12/22 08:26:05;;;;;;;;;;;20.50;30.30;;;;;;481724;246;1477;-47
2021/12/22 08:28:07;;;;;;;;;;;20.70;30.00;;;;;;481853;246;1201;-46
2021/12/22 08:30:08;;;;;;;;;;;20.80;29.80;;;;;;481777;246;2189;-46
2021/12/22 08:32:10;;;;;;;;;;;21.00;29.60;;;;;;481668;246;1270;-46
2021/12/22 08:34:15;;;;;;;;;;;21.10;29.50;;;;;;481772;246;1182;-47
2021/12/22 08:40:52;;;;;;;;;;;21.30;29.30;;;;;;481550;247;1986;-47
2021/12/22 08:42:54;;;;;;;;;;;21.40;29.20;;;;;;481874;246;1191;-47
2021/12/22 08:44:55;;;;;;;;;;;21.40;29.20;;;;;;481950;246;1071;-46
2021/12/22 08:46:56;;;;;;;;;;;21.50;29.10;;;;;;481758;246;1471;-46
2021/12/22 08:48:58;;;;;;;;;;;21.50;29.10;;;;;;482063;246;2110;-46
2021/12/22 08:50:59;;;;;;;;;;;21.50;29.10;;;;;;482014;246;1778;-47
2021/12/22 08:53:00;;;;;;;;;;;21.50;29.00;;;;;;481941;246;1232;-46
2021/12/22 08:55:02;;;;;;;;;;;21.60;29.00;;;;;;481937;246;1099;-47
2021/12/22 08:57:03;;;;;;;;;;;21.60;29.00;;;;;;481846;246;1628;-46
2021/12/22 08:59:04;;;;;;;;;;;21.60;29.00;;;;;;481811;246;1074;-47
2021/12/22 09:01:05;;;;;;;;;;;21.60;28.90;;;;;;481727;246;1363;-46
2021/12/22 09:03:07;;;;;;;;;;;21.70;28.90;;;;;;481761;246;1178;-46
2021/12/22 09:05:08;;;;;;;;;;;21.70;28.90;;;;;;481829;246;1129;-47
2021/12/22 09:07:09;;;;;;;;;;;21.70;28.90;;;;;;481714;246;1298;-47
2021/12/22 09:09:11;;;;;;;;;;;21.70;28.80;;;;;;481868;246;2133;-45
2021/12/22 09:11:12;;;;;;;;;;;21.80;28.80;;;;;;481881;246;1467;-46
2021/12/22 09:13:15;;;;;;;;;;;21.80;28.80;;;;;;481811;246;1215;-47
2021/12/22 09:15:17;;;;;;;;;;;21.80;28.80;;;;;;481715;247;1974;-47
2021/12/22 09:17:17;;;;;;;;;;;21.80;28.80;;;;;;481672;247;2413;-46
2021/12/22 09:19:18;;;;;;;;;;;21.80;28.80;;;;;;481866;246;1151;-47
2021/12/22 09:21:21;;;;;;;;;;;21.90;28.70;;;;;;481859;246;1475;-47
2021/12/22 09:23:21;;;;;;;;;;;21.90;28.70;;;;;;481720;247;1397;-46
2021/12/22 09:25:22;;;;;;;;;;;21.90;28.70;;;;;;481868;246;1060;-46
2021/12/22 09:27:23;;;;;;;;;;;21.90;28.70;;;;;;481806;246;1585;-47
2021/12/22 09:29:26;;;;;;;;;;;21.90;28.60;;;;;;481729;246;2113;-47
2021/12/22 09:31:26;;;;;;;;;;;22.00;28.70;;;;;;481727;247;2289;-46
2021/12/22 09:33:27;;;;;;;;;;;22.00;28.70;;;;;;481860;246;1133;-46
2021/12/22 09:35:29;;;;;;;;;;;22.00;28.60;;;;;;481792;246;1408;-46
2021/12/22 09:37:30;;;;;;;;;;;22.00;28.60;;;;;;481786;246;1202;-47
2021/12/22 09:39:31;;;;;;;;;;;22.10;28.60;;;;;;482062;246;1053;-46
2021/12/22 09:41:33;;;;;;;;;;;22.10;28.60;;;;;;481974;246;1473;-46
2021/12/22 09:43:34;;;;;;;;;;;22.10;28.60;;;;;;481888;246;1292;-47
2021/12/22 09:45:40;;;;;;;;;;;22.10;28.60;;;;;;481839;246;1351;-46
2021/12/22 09:47:51;;;;;;;;;;;22.10;28.60;;;;;;481499;247;2162;-47
2021/12/22 09:50:06;;;;;;;;;;;22.10;28.50;;;;;;481130;247;2102;-46
2021/12/22 09:54:11;;;;;;;;;;;22.10;28.50;;;;;;481907;247;1255;-47
2021/12/22 09:56:12;;;;;;;;;;;22.20;28.60;;;;;;481930;246;1241;-46
2021/12/22 09:58:14;;;;;;;;;;;22.10;28.50;;;;;;481795;246;1127;-46
2021/12/22 10:00:15;;;;;;;;;;;22.10;28.50;;;;;;481810;246;1338;-46
2021/12/22 10:02:16;;;;;;;;;;;22.10;28.50;;;;;;481789;246;1202;-46
2021/12/22 10:04:19;;;;;;;;;;;22.10;28.60;;;;;;481744;246;1216;-47
2021/12/22 10:06:19;;;;;;;;;;;22.10;28.60;;;;;;481532;247;1997;-46
2021/12/22 10:08:20;;;;;;;;;;;22.10;28.50;;;;;;481895;246;1128;-46
2021/12/22 10:10:26;;;;;;;;;;;22.20;28.50;;;;;;481826;246;2185;-46
2021/12/22 10:12:23;;;;;;;;;;;22.20;28.50;;;;;;481422;247;1716;-47
2021/12/22 10:14:24;;;;;;;;;;;22.20;28.50;;;;;;481663;246;1022;-47
2021/12/22 10:16:25;;;;;;;;;;;22.20;28.50;;;;;;481653;246;1266;-47
2021/12/22 10:18:27;;;;;;;;;;;22.20;28.50;;;;;;481725;246;1268;-46
2021/12/22 10:20:28;;;;;;;;;;;22.20;28.50;;;;;;481792;246;1093;-46
2021/12/22 10:22:29;;;;;;;;;;;22.20;28.50;;;;;;481816;246;1343;-46
2021/12/22 10:24:30;;;;;;;;;;;22.20;28.60;;;;;;481885;246;1277;-47
2021/12/22 10:26:32;;;;;;;;;;;22.20;28.50;;;;;;481791;246;1323;-47
2021/12/22 10:28:33;;;;;;;;;;;22.20;28.50;;;;;;481724;246;1120;-47
2021/12/22 10:30:35;;;;;;;;;;;22.20;28.50;;;;;;481727;246;2184;-46
2021/12/22 10:32:36;;;;;;;;;;;22.20;28.50;;;;;;481816;246;1126;-46
2021/12/22 10:34:37;;;;;;;;;;;22.30;28.50;;;;;;481854;246;1060;-46
2021/12/22 10:36:39;;;;;;;;;;;22.30;28.50;;;;;;481824;246;1215;-46
2021/12/22 10:38:40;;;;;;;;;;;22.30;28.50;;;;;;481706;246;1072;-47
2021/12/22 10:40:41;;;;;;;;;;;22.30;28.50;;;;;;481869;246;1135;-47
2021/12/22 10:42:43;;;;;;;;;;;22.30;28.50;;;;;;481702;246;1169;-47
2021/12/22 10:44:45;;;;;;;;;;;22.30;28.50;;;;;;481915;246;1078;-46
2021/12/22 10:46:47;;;;;;;;;;;22.30;28.40;;;;;;481682;246;1497;-47
2021/12/22 10:51:08;;;;;;;;;;;22.30;28.40;;;;;;481745;247;2105;-46
2021/12/22 10:53:10;;;;;;;;;;;22.30;28.40;;;;;;481744;246;1211;-47
2021/12/22 10:55:11;;;;;;;;;;;22.30;28.40;;;;;;481798;246;1059;-46
2021/12/22 10:57:12;;;;;;;;;;;22.30;28.50;;;;;;481823;246;1216;-47
2021/12/22 10:59:13;;;;;;;;;;;22.30;28.40;;;;;;482169;246;1092;-47
2021/12/22 11:01:16;;;;;;;;;;;22.40;28.50;;;;;;481750;246;1183;-46
2021/12/22 11:03:18;;;;;;;;;;;22.40;28.40;;;;;;481765;247;2083;-46
2021/12/22 11:05:17;;;;;;;;;;;22.40;28.50;;;;;;481708;247;2486;-46
2021/12/22 11:07:23;;;;;;;;;;;22.40;28.50;;;;;;481743;246;1324;-46
2021/12/22 11:09:22;;;;;;;;;;;22.40;28.50;;;;;;481927;247;1334;-47
2021/12/22 11:11:23;;;;;;;;;;;22.40;28.50;;;;;;481862;246;1356;-47
2021/12/22 11:13:25;;;;;;;;;;;22.40;28.40;;;;;;482031;247;1266;-46
2021/12/22 11:15:26;;;;;;;;;;;22.40;28.40;;;;;;482239;246;1082;-46
2021/12/22 11:17:28;;;;;;;;;;;22.40;28.50;;;;;;481934;246;1200;-47
2021/12/22 11:19:29;;;;;;;;;;;22.40;28.40;;;;;;481836;247;2547;-47
2021/12/22 11:21:33;;;;;;;;;;;22.40;28.40;;;;;;481805;246;1169;-47
2021/12/22 11:23:31;;;;;;;;;;;22.40;28.40;;;;;;481664;247;2092;-46
2021/12/22 11:25:33;;;;;;;;;;;22.40;28.40;;;;;;481930;246;1045;-47
2021/12/22 11:27:34;;;;;;;;;;;22.40;28.40;;;;;;481766;246;1250;-46
2021/12/22 11:29:35;;;;;;;;;;;22.40;28.40;;;;;;481891;246;2252;-47
2021/12/22 11:31:36;;;;;;;;;;;22.40;28.40;;;;;;481835;246;1607;-47
2021/12/22 11:33:38;;;;;;;;;;;22.40;28.50;;;;;;482037;246;1166;-47
2021/12/22 11:35:41;;;;;;;;;;;22.50;28.50;;;;;;482136;246;1056;-47
2021/12/22 11:37:41;;;;;;;;;;;22.40;28.40;;;;;;481720;247;2036;-47
2021/12/22 11:39:43;;;;;;;;;;;22.50;28.50;;;;;;482281;246;1085;-47
2021/12/22 11:41:54;;;;;;;;;;;22.40;28.40;;;;;;481810;247;2067;-47
2021/12/22 11:43:45;;;;;;;;;;;22.50;28.50;;;;;;481376;247;1850;-47
2021/12/22 11:45:46;;;;;;;;;;;22.50;28.50;;;;;;481853;246;1286;-47
2021/12/22 11:47:47;;;;;;;;;;;22.50;28.50;;;;;;481844;246;1251;-46
2021/12/22 11:49:49;;;;;;;;;;;22.50;28.40;;;;;;481915;246;2130;-46
2021/12/22 11:51:50;;;;;;;;;;;22.50;28.50;;;;;;481922;246;1363;-47
2021/12/22 11:53:51;;;;;;;;;;;22.50;28.40;;;;;;481857;246;1212;-46
2021/12/22 11:55:55;;;;;;;;;;;22.50;28.40;;;;;;481842;246;1466;-46
2021/12/22 11:57:54;;;;;;;;;;;22.50;28.40;;;;;;481560;247;2304;-46
2021/12/22 11:59:55;;;;;;;;;;;22.50;28.40;;;;;;481755;246;1046;-47
2021/12/22 12:01:57;;;;;;;;;;;22.50;28.40;;;;;;481607;246;1234;-46
2021/12/22 12:03:58;;;;;;;;;;;22.50;28.40;;;;;;481738;246;1109;-47
2021/12/22 12:05:59;;;;;;;;;;;22.50;28.40;;;;;;481673;246;1204;-47
2021/12/22 12:08:02;;;;;;;;;;;22.50;28.40;;;;;;482012;246;1204;-46
2021/12/22 12:10:02;;;;;;;;;;;22.60;28.50;;;;;;481788;247;2189;-47